createdAt,value
2023-07-22T00:06:22.079Z,100198.63
2023-07-22T00:16:26.011Z,100202.25
2023-07-22T00:26:31.307Z,100216.81
2023-07-22T00:36:35.071Z,100216.31
2023-07-22T00:46:40.162Z,100206.16
2023-07-22T00:56:44.772Z,100206.84
2023-07-22T01:06:51.461Z,100209.75
2023-07-22T01:16:55.184Z,100204.97
2023-07-22T01:27:00.464Z,100207.34
2023-07-22T01:37:05.781Z,100201.13
2023-07-22T01:47:10.826Z,100221.25
2023-07-22T01:57:14.521Z,100211.69
2023-07-22T02:07:19.529Z,100211.69
2023-07-22T02:17:23.222Z,100216.19
2023-07-22T02:27:28.235Z,100214.44
2023-07-22T02:37:31.937Z,100221.16
2023-07-22T02:47:37.172Z,100219.53
2023-07-22T02:57:42.685Z,100219.38
2023-07-22T03:07:47.902Z,100222.78
2023-07-22T03:17:51.811Z,100222.19
2023-07-22T03:27:57.621Z,100229.81
2023-07-22T03:38:01.338Z,100244.00
2023-07-22T03:48:07.318Z,100244.94
2023-07-22T03:58:11.081Z,100240.25
2023-07-22T04:08:16.085Z,100238.66
2023-07-22T04:18:21.785Z,100232.88
2023-07-22T04:28:26.878Z,100243.53
2023-07-22T04:38:30.707Z,100246.56
2023-07-22T04:48:35.972Z,100256.28
2023-07-22T04:58:39.864Z,100261.78
2023-07-22T05:08:44.905Z,100248.66
2023-07-22T05:18:48.692Z,100252.09
2023-07-22T05:28:53.807Z,100254.78
2023-07-22T05:38:57.574Z,100267.31
2023-07-22T05:49:02.580Z,100270.19
2023-07-22T05:59:06.254Z,100273.25
2023-07-22T06:09:11.231Z,100271.66
2023-07-22T06:19:14.889Z,100270.50
2023-07-22T06:29:19.947Z,100275.47
2023-07-22T06:39:23.782Z,100280.38
2023-07-22T06:49:28.840Z,100302.31
2023-07-22T06:59:32.558Z,100292.47
2023-07-22T07:09:38.706Z,100294.47
2023-07-22T07:19:42.471Z,100283.00
2023-07-22T07:29:54.318Z,100274.63
2023-07-22T07:40:00.611Z,100265.50
2023-07-22T07:50:07.957Z,100275.81
2023-07-22T08:00:13.191Z,100261.25
2023-07-22T08:10:19.016Z,100257.00
2023-07-22T08:20:23.268Z,100266.38
2023-07-22T08:30:28.649Z,100254.34
2023-07-22T08:40:36.106Z,100251.03
2023-07-22T08:50:47.604Z,100243.34
2023-07-22T09:00:51.599Z,100225.16
2023-07-22T09:10:57.990Z,100212.16
2023-07-22T09:21:02.088Z,100203.22
2023-07-22T09:31:07.767Z,100188.72
2023-07-22T09:41:12.585Z,100191.69
2023-07-22T09:51:18.351Z,100188.63
2023-07-22T10:01:25.475Z,100163.34
2023-07-22T10:11:33.422Z,100159.41
2023-07-22T10:21:39.059Z,100147.22
2023-07-22T10:31:44.470Z,100134.00
2023-07-22T10:41:49.615Z,100134.25
2023-07-22T10:51:55.024Z,100117.75
2023-07-22T11:01:59.106Z,100105.97
2023-07-22T11:12:06.933Z,100111.78
2023-07-22T11:22:12.465Z,100098.94
2023-07-22T11:32:23.485Z,100069.22
2023-07-22T11:42:27.639Z,100059.41
2023-07-22T11:52:32.944Z,100048.00
2023-07-22T12:02:38.735Z,100038.53
2023-07-22T12:12:47.097Z,100027.72
2023-07-22T12:22:51.002Z,100011.59
2023-07-22T12:32:56.096Z,100007.03
2023-07-22T12:43:02.165Z,100022.84
2023-07-22T12:53:07.555Z,100003.78
2023-07-22T13:03:11.389Z,99999.56
2023-07-22T13:13:16.571Z,99979.03
2023-07-22T13:23:20.346Z,99982.44
2023-07-22T13:33:25.435Z,99977.91
2023-07-22T13:43:29.499Z,99965.41
2023-07-22T13:53:34.551Z,99955.75
2023-07-22T14:03:38.600Z,99944.69
2023-07-22T14:13:43.759Z,99927.25
2023-07-22T14:23:47.499Z,99910.47
2023-07-22T14:33:52.613Z,99913.09
2023-07-22T14:43:56.289Z,99891.66
2023-07-22T14:54:01.695Z,99900.31
2023-07-22T15:04:06.364Z,99882.31
2023-07-22T15:14:11.948Z,99871.84
2023-07-22T15:24:15.690Z,99864.06
2023-07-22T15:34:20.810Z,99849.03
2023-07-22T15:44:28.399Z,99848.31
2023-07-22T15:54:33.954Z,99846.47
2023-07-22T16:04:38.431Z,99834.66
2023-07-22T16:14:43.941Z,99841.84
2023-07-22T16:24:47.688Z,99828.31
2023-07-22T16:34:52.798Z,99815.97
2023-07-22T16:44:56.651Z,99826.84
2023-07-22T16:55:01.761Z,99809.91
2023-07-22T17:05:06.848Z,99811.59
2023-07-22T17:15:12.750Z,99784.66
2023-07-22T17:25:17.302Z,99785.19
2023-07-22T17:35:22.863Z,99791.94
2023-07-22T17:45:26.635Z,99781.44
2023-07-22T17:55:33.077Z,99790.50
2023-07-22T18:05:36.783Z,99798.38
2023-07-22T18:15:41.974Z,99803.78
2023-07-22T18:25:46.007Z,99807.81
2023-07-22T18:35:52.476Z,99817.94
2023-07-22T18:45:56.192Z,99816.13
2023-07-22T18:56:01.584Z,99820.13
2023-07-22T19:06:05.429Z,99815.66
2023-07-22T19:16:10.661Z,99828.09
2023-07-22T19:26:14.363Z,99838.22
2023-07-22T19:36:19.640Z,99839.41
2023-07-22T19:46:24.044Z,99846.09
2023-07-22T19:56:29.291Z,99852.53
2023-07-22T20:06:33.089Z,99856.09
2023-07-22T20:16:38.331Z,99875.19
2023-07-22T20:26:42.228Z,99864.75
2023-07-22T20:36:47.364Z,99883.81
2023-07-22T20:46:51.062Z,99895.91
2023-07-22T20:56:56.455Z,99891.75
2023-07-22T21:07:00.191Z,99885.75
2023-07-22T21:17:06.119Z,99889.25
2023-07-22T21:27:10.412Z,99889.34
2023-07-22T21:37:15.773Z,99897.13
2023-07-22T21:47:19.764Z,99880.94
2023-07-22T21:57:25.012Z,99890.41
2023-07-22T22:07:28.710Z,99888.78
2023-07-22T22:17:38.064Z,99889.63
2023-07-22T22:27:48.300Z,99884.50
2023-07-22T22:37:53.484Z,99892.19
2023-07-22T22:47:57.212Z,99889.66
2023-07-22T22:58:12.981Z,99899.06
2023-07-22T23:08:17.022Z,99889.66
2023-07-22T23:18:23.133Z,99899.88
2023-07-22T23:28:26.909Z,99887.03
2023-07-22T23:38:33.102Z,99894.72
2023-07-22T23:48:36.807Z,99880.19
2023-07-22T23:58:42.190Z,99882.75
